Time;durP1;ratioP1;P1;durP2;ratioP2;P2;SDS_P1;SDS_P2;PMS_P1;PMS_P2;Temp;Humidity;BMP_temperature;BMP_pressure;BME280_temperature;BME280_humidity;BME280_pressure;Samples;Min_cycle;Max_cycle;Signal;HPM_P1;HPM_P2
2023/09/01 00:01:31;;;;;;;0.30;0.20;;;;;;;21.70;100.00;100339.25;4973371;28;20082;-75
2023/09/01 00:03:57;;;;;;;1.75;1.17;;;;;;;21.64;100.00;100336.00;4965559;28;20091;-75
2023/09/01 00:06:22;;;;;;;1.00;0.63;;;;;;;21.31;100.00;100255.66;5000659;28;20046;-76
2023/09/01 00:08:48;;;;;;;1.80;1.02;;;;;;;21.85;100.00;100358.16;4982522;28;20058;-76
2023/09/01 00:11:13;;;;;;;2.65;1.83;;;;;;;21.82;100.00;100358.28;4986917;28;20034;-73
2023/09/01 00:13:39;;;;;;;1.67;1.10;;;;;;;21.59;100.00;100336.22;4987757;28;20038;-74
2023/09/01 00:16:05;;;;;;;0.73;0.55;;;;;;;21.61;100.00;100341.47;4986930;28;20192;-75
2023/09/01 00:18:31;;;;;;;0.63;0.63;;;;;;;21.21;100.00;100282.78;4985990;28;20165;-74
2023/09/01 00:20:58;;;;;;;1.13;1.02;;;;;;;21.59;100.00;100341.56;4985292;28;20042;-75
2023/09/01 00:23:24;;;;;;;0.70;0.70;;;;;;;21.01;100.00;100257.00;4987441;28;20034;-74
2023/09/01 00:25:58;;;;;;;1.02;0.95;;;;;;;21.58;100.00;100360.31;4973778;28;20030;-75
2023/09/01 00:28:24;;;;;;;0.65;0.52;;;;;;;21.05;100.00;100285.28;4980738;28;20181;-74
2023/09/01 00:31:00;;;;;;;1.27;1.00;;;;;;;21.05;100.00;100289.75;4985623;28;20100;-74
2023/09/01 00:33:29;;;;;;;1.25;1.15;;;;;;;21.37;100.00;100363.00;4982669;28;20589;-73
2023/09/01 00:35:56;;;;;;;0.90;0.90;;;;;;;21.33;100.00;100360.53;4981614;28;20039;-74
2023/09/01 00:38:24;;;;;;;1.50;1.02;;;;;;;20.88;100.00;100282.50;4986369;28;20061;-75
2023/09/01 00:40:50;;;;;;;1.85;1.23;;;;;;;21.37;100.00;100381.69;4981166;28;20114;-74
2023/09/01 00:43:16;;;;;;;0.85;0.77;;;;;;;21.28;100.00;100366.97;4979944;28;20042;-74
2023/09/01 00:45:42;;;;;;;1.17;1.10;;;;;;;21.17;100.00;100350.56;4984776;28;20058;-73
2023/09/01 00:48:08;;;;;;;2.78;1.73;;;;;;;20.96;100.00;100288.38;4984878;28;20042;-74
2023/09/01 00:50:37;;;;;;;2.10;1.33;;;;;;;20.98;100.00;100301.66;4985751;28;20126;-74
2023/09/01 00:53:05;;;;;;;2.92;2.67;;;;;;;20.90;100.00;100287.75;4987508;28;20026;-74
2023/09/01 00:55:33;;;;;;;0.95;0.75;;;;;;;21.28;100.00;100379.41;4986514;28;20053;-75
2023/09/01 00:58:00;;;;;;;1.23;1.13;;;;;;;21.29;100.00;100376.69;4986558;28;20057;-74
2023/09/01 01:00:26;;;;;;;0.43;0.43;;;;;;;20.70;100.00;100280.63;4982780;28;20039;-74
2023/09/01 01:02:52;;;;;;;0.65;0.57;;;;;;;21.03;100.00;100339.66;4980874;28;20124;-77
2023/09/01 01:05:25;;;;;;;0.93;0.85;;;;;;;21.12;100.00;100368.59;4980270;28;20058;-75
2023/09/01 01:08:00;;;;;;;1.33;1.23;;;;;;;20.65;100.00;100288.88;4982457;28;20031;-74
2023/09/01 01:10:42;;;;;;;0.50;0.50;;;;;;;21.06;100.00;100364.38;4984439;28;20042;-75
2023/09/01 01:13:12;;;;;;;0.45;0.45;;;;;;;21.21;100.00;100370.84;4986652;28;20034;-74
2023/09/01 01:15:39;;;;;;;1.63;1.05;;;;;;;21.14;100.00;100377.41;4980352;28;20047;-75
2023/09/01 01:18:10;;;;;;;1.67;1.30;;;;;;;21.33;100.00;100396.13;4986724;28;20047;-76
2023/09/01 01:20:42;;;;;;;6.85;6.22;;;;;;;20.70;100.00;100288.63;4972995;28;20100;-75
2023/09/01 01:23:16;;;;;;;1.52;1.42;;;;;;;21.12;100.00;100386.38;4978375;28;20033;-73
2023/09/01 01:25:52;;;;;;;0.30;0.30;;;;;;;20.51;100.00;100310.75;4984847;28;20046;-74
2023/09/01 01:28:19;;;;;;;2.92;0.35;;;;;;;21.07;100.00;100411.50;4985728;28;20526;-73
2023/09/01 01:30:49;;;;;;;1.00;0.85;;;;;;;20.69;100.00;100330.44;4977399;28;20039;-74
2023/09/01 01:33:37;;;;;;;1.40;1.30;;;;;;;21.24;100.00;100415.22;4982800;28;20047;-76
2023/09/01 01:36:30;;;;;;;1.00;0.93;;;;;;;21.14;100.00;100395.19;4998830;28;20391;-74
2023/09/01 01:39:06;;;;;;;1.75;0.43;;;;;;;21.24;100.00;100415.22;4998022;28;20046;-74
2023/09/01 01:41:48;;;;;;;0.30;0.30;;;;;;;21.34;100.00;100426.34;4987486;28;20056;-75
2023/09/01 01:44:17;;;;;;;0.98;0.95;;;;;;;20.45;100.00;100321.66;4989018;28;20081;-75
2023/09/01 01:46:44;;;;;;;0.75;0.75;;;;;;;21.04;100.00;100405.41;4991057;28;20049;-73
2023/09/01 01:49:10;;;;;;;0.57;0.57;;;;;;;21.12;100.00;100418.41;4988073;28;20380;-74
2023/09/01 01:51:35;;;;;;;0.52;0.52;;;;;;;20.47;100.00;100313.63;4984425;28;20046;-73
2023/09/01 01:54:02;;;;;;;2.20;2.00;;;;;;;20.47;100.00;100346.47;4988850;28;20116;-75
2023/09/01 01:56:27;;;;;;;0.88;0.80;;;;;;;20.70;100.00;100398.84;4981480;28;20046;-74
2023/09/01 01:58:53;;;;;;;8.65;3.60;;;;;;;20.29;100.00;100315.25;4986529;28;20046;-73
2023/09/01 02:01:18;;;;;;;3.53;2.20;;;;;;;20.36;100.00;100322.91;4989252;28;20046;-74
2023/09/01 02:03:44;;;;;;;2.03;1.30;;;;;;;20.76;100.00;100387.91;4990628;28;20157;-72
2023/09/01 02:06:10;;;;;;;1.55;1.00;;;;;;;20.94;100.00;100425.41;4989879;28;20117;-74
2023/09/01 02:08:35;;;;;;;1.92;1.77;;;;;;;20.60;100.00;100374.38;4993650;28;20049;-76
2023/09/01 02:11:01;;;;;;;1.15;0.82;;;;;;;21.00;100.00;100430.47;4990016;28;20741;-74
2023/09/01 02:13:26;;;;;;;1.75;1.55;;;;;;;20.79;100.00;100390.47;4985959;28;20046;-74
2023/09/01 02:15:53;;;;;;;2.30;2.15;;;;;;;20.83;100.00;100407.19;4989237;28;20494;-75
2023/09/01 02:18:19;;;;;;;0.68;0.68;;;;;;;20.26;100.00;100329.56;4988709;28;20042;-75
2023/09/01 02:20:44;;;;;;;0.98;0.98;;;;;;;20.29;100.00;100328.56;4991869;28;20425;-74
2023/09/01 02:23:12;;;;;;;0.98;0.55;;;;;;;20.17;100.00;100327.28;4988289;28;20030;-74
2023/09/01 02:25:38;;;;;;;1.05;0.95;;;;;;;20.50;100.00;100391.66;4986123;28;20027;-74
2023/09/01 02:28:04;;;;;;;2.00;1.85;;;;;;;20.68;100.00;100424.72;4986687;28;20418;-74
2023/09/01 02:30:30;;;;;;;0.88;0.85;;;;;;;20.28;100.00;100378.34;4987169;28;20046;-76
2023/09/01 02:32:56;;;;;;;0.70;0.68;;;;;;;20.64;100.00;100437.28;4979005;28;20465;-74
2023/09/01 02:35:22;;;;;;;0.63;0.55;;;;;;;20.10;100.00;100355.09;4983450;28;20030;-74
2023/09/01 02:37:49;;;;;;;2.03;1.63;;;;;;;19.97;100.00;100349.38;5000093;28;20042;-73
2023/09/01 02:40:15;;;;;;;1.23;1.13;;;;;;;20.32;100.00;100405.72;4985694;28;20478;-74
2023/09/01 02:42:41;;;;;;;1.95;1.73;;;;;;;19.80;100.00;100329.63;4988430;28;20048;-73
2023/09/01 02:45:12;;;;;;;1.92;1.75;;;;;;;20.34;100.00;100434.03;4989159;28;20046;-73
2023/09/01 02:47:37;;;;;;;2.65;1.23;;;;;;;19.86;100.00;100359.63;4985382;28;20053;-76
2023/09/01 02:50:07;;;;;;;1.42;1.23;;;;;;;20.51;100.00;100472.47;4987225;28;20038;-74
2023/09/01 02:52:33;;;;;;;3.65;1.67;;;;;;;20.43;100.00;100457.66;4983318;28;20066;-75
2023/09/01 02:54:59;;;;;;;4.53;3.53;;;;;;;20.26;100.00;100438.81;4985723;28;20060;-73
2023/09/01 02:57:25;;;;;;;1.20;1.05;;;;;;;19.99;100.00;100392.81;4987254;28;20050;-75
2023/09/01 02:59:53;;;;;;;0.73;0.65;;;;;;;20.46;100.00;100480.66;4989369;28;20155;-75
2023/09/01 03:02:20;;;;;;;2.92;1.58;;;;;;;20.52;100.00;100482.22;4986436;28;20490;-75
2023/09/01 03:04:48;;;;;;;4.05;1.08;;;;;;;20.00;100.00;100386.56;4985933;28;20049;-73
2023/09/01 03:07:13;;;;;;;1.42;1.33;;;;;;;19.90;100.00;100366.53;4988632;28;20043;-74
2023/09/01 03:09:39;;;;;;;3.13;2.63;;;;;;;20.62;100.00;100465.81;4987493;28;20788;-75
2023/09/01 03:12:04;;;;;;;1.52;1.42;;;;;;;20.10;100.00;100384.41;4979821;28;20126;-73
2023/09/01 03:14:30;;;;;;;0.73;0.73;;;;;;;20.06;100.00;100373.00;4985437;28;20478;-76
2023/09/01 03:16:56;;;;;;;1.27;1.08;;;;;;;20.55;100.00;100482.09;5017297;28;20043;-73
2023/09/01 03:19:21;;;;;;;0.60;0.45;;;;;;;20.07;100.00;100387.22;4981488;28;20112;-73
2023/09/01 03:21:47;;;;;;;1.75;0.75;;;;;;;20.42;100.00;100455.94;4987367;28;20671;-75
2023/09/01 03:24:12;;;;;;;1.10;0.65;;;;;;;19.77;100.00;100380.34;4985628;28;20054;-75
2023/09/01 03:26:38;;;;;;;1.17;1.08;;;;;;;20.14;100.00;100424.19;4986933;28;20050;-74
2023/09/01 03:29:03;;;;;;;0.70;0.70;;;;;;;20.09;100.00;100401.31;4987677;28;20030;-73
2023/09/01 03:31:31;;;;;;;2.20;2.00;;;;;;;20.52;100.00;100480.44;4984101;28;20057;-75
2023/09/01 03:33:57;;;;;;;0.45;0.45;;;;;;;20.41;100.00;100482.66;4982770;28;20046;-75
2023/09/01 03:36:22;;;;;;;2.67;1.73;;;;;;;20.24;100.00;100454.00;4980342;28;20088;-75
2023/09/01 03:38:47;;;;;;;2.00;1.80;;;;;;;19.92;100.00;100389.53;4986673;28;20038;-75
2023/09/01 03:41:13;;;;;;;1.60;1.50;;;;;;;20.32;100.00;100467.03;4987648;28;20037;-74
2023/09/01 03:43:38;;;;;;;1.17;0.77;;;;;;;20.24;100.00;100467.31;4979655;28;20046;-74
2023/09/01 03:46:05;;;;;;;1.35;1.10;;;;;;;19.92;100.00;100405.50;4983591;28;20133;-76
2023/09/01 03:48:31;;;;;;;2.60;2.28;;;;;;;19.75;100.00;100387.50;4987595;28;20133;-76
2023/09/01 03:51:16;;;;;;;3.30;1.27;;;;;;;20.41;100.00;100498.63;4983382;28;20042;-76
2023/09/01 03:53:42;;;;;;;0.43;0.43;;;;;;;20.25;100.00;100469.06;4987159;28;20057;-74
2023/09/01 03:56:09;;;;;;;3.45;2.42;;;;;;;20.27;100.00;100482.31;4983927;28;20170;-74
2023/09/01 03:58:36;;;;;;;2.47;2.28;;;;;;;20.49;100.00;100499.22;4985687;28;20046;-74
2023/09/01 04:01:05;;;;;;;1.83;1.33;;;;;;;20.34;100.00;100486.47;4976990;28;20490;-74
2023/09/01 04:03:31;;;;;;;2.47;2.28;;;;;;;20.37;100.00;100494.34;4986853;28;20050;-75
2023/09/01 04:06:00;;;;;;;1.38;0.63;;;;;;;20.11;100.00;100426.09;4986332;28;20058;-75
2023/09/01 04:08:25;;;;;;;1.83;1.50;;;;;;;20.56;100.00;100503.41;4986989;28;20490;-75
2023/09/01 04:10:51;;;;;;;1.27;0.85;;;;;;;20.43;100.00;100481.66;4982347;28;20082;-75
2023/09/01 04:13:16;;;;;;;1.63;1.52;;;;;;;20.56;100.00;100508.75;4990497;28;20045;-76
2023/09/01 04:15:41;;;;;;;0.73;0.57;;;;;;;20.09;100.00;100415.53;4986812;28;20054;-75
2023/09/01 04:18:07;;;;;;;0.85;0.68;;;;;;;20.08;100.00;100407.56;4986513;28;20061;-75
2023/09/01 04:20:32;;;;;;;2.58;1.75;;;;;;;20.70;100.00;100509.97;4982651;28;20053;-73
2023/09/01 04:22:58;;;;;;;0.70;0.70;;;;;;;20.72;100.00;100509.00;4987793;28;20058;-73
2023/09/01 04:25:23;;;;;;;0.85;0.63;;;;;;;20.18;100.00;100412.50;4981326;28;20505;-73
2023/09/01 04:27:49;;;;;;;1.52;1.10;;;;;;;20.61;100.00;100492.56;4981753;28;20045;-74
2023/09/01 04:30:14;;;;;;;0.47;0.47;;;;;;;20.25;100.00;100410.41;4987108;28;20069;-74
2023/09/01 04:32:43;;;;;;;2.95;2.65;;;;;;;20.38;100.00;100446.31;4979617;28;20089;-74
2023/09/01 04:35:09;;;;;;;4.90;1.90;;;;;;;20.58;100.00;100464.22;4985193;28;20065;-74
2023/09/01 04:37:35;;;;;;;1.20;1.10;;;;;;;20.03;100.00;100384.66;4984089;28;20686;-74
2023/09/01 04:40:06;;;;;;;1.17;1.10;;;;;;;20.36;100.00;100415.34;4980501;28;20104;-76
2023/09/01 04:42:31;;;;;;;0.40;0.40;;;;;;;20.99;100.00;100508.78;4981113;28;20058;-75
2023/09/01 04:44:57;;;;;;;1.63;1.52;;;;;;;20.89;100.00;100542.13;4986673;28;20769;-74
2023/09/01 04:47:23;;;;;;;0.73;0.55;;;;;;;20.84;100.00;100505.81;4985883;28;20041;-73
2023/09/01 04:49:49;;;;;;;0.82;0.60;;;;;;;20.97;100.00;100532.84;4986744;28;20026;-74
2023/09/01 04:52:15;;;;;;;1.48;1.38;;;;;;;20.35;100.00;100418.94;4978323;28;20049;-74
2023/09/01 04:54:40;;;;;;;0.43;0.40;;;;;;;20.63;100.00;100430.25;4984603;28;20077;-74
2023/09/01 04:57:06;;;;;;;3.13;1.77;;;;;;;20.87;100.00;100455.00;4984292;28;20101;-73
2023/09/01 04:59:32;;;;;;;0.98;0.98;;;;;;;21.39;100.00;100521.28;4985398;28;20528;-76
2023/09/01 05:01:59;;;;;;;1.20;1.10;;;;;;;21.09;100.00;100456.75;4982330;28;20057;-73
2023/09/01 05:04:25;;;;;;;1.70;1.58;;;;;;;21.29;100.00;100485.28;4984001;28;20058;-75
2023/09/01 05:06:50;;;;;;;1.40;1.30;;;;;;;21.27;100.00;100460.44;4979459;28;20479;-74
2023/09/01 05:09:16;;;;;;;0.98;0.75;;;;;;;21.65;100.00;100544.22;4983318;28;20043;-74
2023/09/01 05:11:42;;;;;;;1.13;1.02;;;;;;;21.69;100.00;100520.94;4978590;28;20068;-74
2023/09/01 05:14:07;;;;;;;2.50;2.22;;;;;;;21.46;100.00;100452.53;4986131;28;20041;-74
2023/09/01 05:16:33;;;;;;;0.70;0.68;;;;;;;23.05;100.00;100559.19;4984714;28;20702;-73
2023/09/01 05:18:58;;;;;;;1.63;0.90;;;;;;;23.37;100.00;100445.09;4985169;28;20049;-74
2023/09/01 05:21:23;;;;;;;1.45;1.35;;;;;;;24.49;100.00;100556.16;4983035;28;20459;-75
2023/09/01 05:23:49;;;;;;;1.77;1.10;;;;;;;23.76;100.00;100569.88;4980775;28;20046;-74
2023/09/01 05:26:14;;;;;;;1.73;1.63;;;;;;;24.87;100.00;100456.47;4980928;28;20077;-74
2023/09/01 05:28:40;;;;;;;0.95;0.82;;;;;;;25.37;100.00;100561.88;4982466;28;20126;-75
2023/09/01 05:31:05;;;;;;;0.57;0.57;;;;;;;24.06;100.00;100552.25;4982842;28;20538;-75
2023/09/01 05:33:31;;;;;;;0.55;0.45;;;;;;;23.14;100.00;100429.34;4981377;28;20051;-77
2023/09/01 05:35:56;;;;;;;0.85;0.45;;;;;;;23.83;100.00;100476.59;4972771;28;20086;-80
2023/09/01 05:38:22;;;;;;;0.80;0.75;;;;;;;24.14;100.00;100478.50;4976496;28;20337;-79
2023/09/01 05:41:05;;;;;;;0.88;0.55;;;;;;;24.40;100.00;100551.28;4978900;28;20030;-80
2023/09/01 05:43:31;;;;;;;4.03;0.38;;;;;;;25.15;100.00;100587.31;4972242;28;20053;-76
2023/09/01 05:45:58;;;;;;;0.65;0.55;;;;;;;24.83;100.00;100490.69;4984200;28;20057;-80
2023/09/01 05:48:24;;;;;;;1.33;1.23;;;;;;;25.00;100.00;100513.00;4979258;28;20056;-81
2023/09/01 05:50:49;;;;;;;0.68;0.68;;;;;;;25.60;100.00;100571.28;4987099;28;20473;-81
2023/09/01 05:53:15;;;;;;;2.58;2.20;;;;;;;25.93;97.18;100494.91;4985771;28;20026;-79
2023/09/01 05:55:40;;;;;;;0.85;0.73;;;;;;;27.21;87.85;100584.50;4984521;28;20659;-80
2023/09/01 05:58:06;;;;;;;1.20;1.15;;;;;;;25.61;96.54;100495.06;4979081;28;20030;-80
2023/09/01 06:00:31;;;;;;;1.58;1.48;;;;;;;26.13;98.79;100523.22;4980482;28;20054;-80
2023/09/01 06:02:58;;;;;;;0.10;0.10;;;;;;;26.04;97.76;100506.72;4979906;28;20054;-79
2023/09/01 06:05:23;;;;;;;1.27;1.15;;;;;;;26.04;99.31;100525.56;4983991;28;20034;-80
2023/09/01 06:07:49;;;;;;;0.63;0.63;;;;;;;26.04;99.93;100563.22;4983325;28;20077;-80
2023/09/01 06:10:17;;;;;;;0.85;0.82;;;;;;;26.54;94.70;100509.84;4985111;28;20049;-80
2023/09/01 06:12:43;;;;;;;0.60;0.57;;;;;;;25.43;99.36;100487.16;4981661;28;20057;-80
2023/09/01 06:15:09;;;;;;;0.85;0.85;;;;;;;26.46;93.53;100591.06;4986898;28;20062;-80
2023/09/01 06:17:37;;;;;;;1.20;1.10;;;;;;;26.45;97.39;100573.16;4985405;28;20035;-76
2023/09/01 06:20:04;;;;;;;1.23;1.17;;;;;;;26.24;99.32;100577.22;4985586;28;20034;-76
2023/09/01 06:22:30;;;;;;;0.50;0.50;;;;;;;26.80;100.00;100540.44;4985366;28;20054;-75
2023/09/01 06:24:55;;;;;;;1.30;1.10;;;;;;;27.07;100.00;100607.78;4985126;28;20084;-75
2023/09/01 06:27:21;;;;;;;1.23;0.95;;;;;;;25.26;100.00;100533.84;4987322;28;20038;-74
2023/09/01 06:29:46;;;;;;;0.70;0.70;;;;;;;25.87;100.00;100591.16;4989079;28;20077;-76
2023/09/01 06:32:12;;;;;;;2.67;2.47;;;;;;;25.54;100.00;100571.63;4983074;28;20165;-74
2023/09/01 06:34:38;;;;;;;3.22;1.83;;;;;;;25.68;100.00;100536.72;4987152;28;20120;-75
2023/09/01 06:37:04;;;;;;;0.30;0.30;;;;;;;25.00;100.00;100583.66;4989515;28;20046;-74
2023/09/01 06:39:30;;;;;;;0.52;0.52;;;;;;;24.93;100.00;100519.69;4984778;28;20039;-75
2023/09/01 06:41:57;;;;;;;0.88;0.88;;;;;;;24.86;100.00;100521.84;4988179;28;20345;-75
2023/09/01 06:44:22;;;;;;;0.30;0.30;;;;;;;24.92;100.00;100577.03;4989904;28;20053;-77
2023/09/01 06:46:48;;;;;;;1.60;1.50;;;;;;;24.59;100.00;100594.06;4986571;28;20030;-74
2023/09/01 06:49:15;;;;;;;1.05;0.60;;;;;;;24.85;100.00;100603.34;4987446;28;20058;-75
2023/09/01 06:51:41;;;;;;;0.80;0.70;;;;;;;24.40;100.00;100583.47;4986085;28;20053;-76
2023/09/01 06:54:06;;;;;;;6.22;1.23;;;;;;;24.00;100.00;100521.28;4984496;28;20069;-76
2023/09/01 06:56:32;;;;;;;0.63;0.47;;;;;;;24.22;100.00;100513.78;4984455;28;20046;-75
2023/09/01 06:58:57;;;;;;;1.48;1.38;;;;;;;24.35;100.00;100613.22;4988668;28;20038;-76
2023/09/01 07:01:23;;;;;;;0.50;0.47;;;;;;;25.15;100.00;100581.94;4987233;28;20054;-78
2023/09/01 07:03:48;;;;;;;1.48;0.82;;;;;;;24.55;100.00;100579.09;4985647;28;20049;-76
2023/09/01 07:06:14;;;;;;;0.75;0.75;;;;;;;24.73;100.00;100609.41;4985404;28;20057;-75
2023/09/01 07:08:39;;;;;;;0.55;0.55;;;;;;;24.31;100.00;100543.72;4983427;28;20054;-77
2023/09/01 07:11:09;;;;;;;0.70;0.65;;;;;;;24.70;100.00;100621.19;4988213;28;20034;-74
2023/09/01 07:13:34;;;;;;;0.47;0.47;;;;;;;24.83;100.00;100632.94;4981153;28;20729;-75
2023/09/01 07:16:00;;;;;;;0.30;0.30;;;;;;;24.50;100.00;100554.34;4980761;28;20046;-74
2023/09/01 07:18:25;;;;;;;0.40;0.40;;;;;;;24.68;100.00;100523.78;4984472;28;20057;-74
2023/09/01 07:20:57;;;;;;;0.77;0.63;;;;;;;24.18;100.00;100555.09;4987431;28;20049;-72
2023/09/01 07:23:23;;;;;;;1.17;1.07;;;;;;;23.80;100.00;100471.41;4975923;28;20041;-72
2023/09/01 07:25:48;;;;;;;0.55;0.52;;;;;;;24.00;100.00;100527.50;5009228;28;20046;-71
2023/09/01 07:28:14;;;;;;;0.22;0.22;;;;;;;24.53;100.00;100546.09;4985049;28;20097;-71
2023/09/01 07:30:40;;;;;;;3.38;1.65;;;;;;;25.54;100.00;100620.84;4983329;28;20661;-70
2023/09/01 07:33:05;;;;;;;1.95;1.50;;;;;;;24.64;100.00;100480.16;4983052;28;20121;-71
2023/09/01 07:35:31;;;;;;;0.30;0.30;;;;;;;24.97;100.00;100545.41;4984550;28;20069;-73
2023/09/01 07:37:57;;;;;;;0.20;0.20;;;;;;;24.83;100.00;100635.63;4988125;28;20140;-72
2023/09/01 07:40:24;;;;;;;0.80;0.73;;;;;;;25.05;100.00;100594.13;4989801;28;20074;-69
2023/09/01 07:42:49;;;;;;;1.60;1.48;;;;;;;25.58;100.00;100632.31;5016051;28;20786;-71
2023/09/01 07:45:15;;;;;;;0.80;0.80;;;;;;;25.51;100.00;100628.25;4979987;28;20039;-72
2023/09/01 07:47:42;;;;;;;3.70;2.33;;;;;;;25.56;100.00;100637.75;4981791;28;20054;-71
2023/09/01 07:50:09;;;;;;;1.25;1.15;;;;;;;25.02;100.00;100533.44;4985407;28;20029;-72
2023/09/01 07:52:35;;;;;;;1.55;0.75;;;;;;;25.63;100.00;100587.19;4986066;28;20052;-69
2023/09/01 07:55:00;;;;;;;0.68;0.65;;;;;;;25.72;100.00;100570.53;4987220;28;20465;-69
2023/09/01 07:57:26;;;;;;;2.58;2.38;;;;;;;25.65;100.00;100577.22;4985749;28;20073;-70
2023/09/01 07:59:51;;;;;;;0.75;0.68;;;;;;;25.59;100.00;100626.84;4988350;28;20096;-69
2023/09/01 08:02:18;;;;;;;2.50;1.95;;;;;;;25.87;100.00;100649.41;4982869;28;20034;-73
2023/09/01 08:04:43;;;;;;;1.23;0.93;;;;;;;24.50;100.00;100565.94;4983518;28;20034;-76
2023/09/01 08:07:09;;;;;;;1.02;0.90;;;;;;;24.82;100.00;100565.94;4982731;28;20041;-76
2023/09/01 08:09:34;;;;;;;0.38;0.38;;;;;;;25.82;100.00;100646.97;4980736;28;20073;-77
2023/09/01 08:12:00;;;;;;;0.38;0.38;;;;;;;25.93;100.00;100642.81;4985491;28;20042;-75
2023/09/01 08:14:25;;;;;;;0.15;0.15;;;;;;;25.60;100.00;100635.78;4982657;28;20089;-75
2023/09/01 08:16:52;;;;;;;0.65;0.65;;;;;;;24.71;99.77;100553.13;4984671;28;20042;-76
2023/09/01 08:19:18;;;;;;;0.45;0.40;;;;;;;25.49;99.00;100660.56;4982695;28;20089;-75
2023/09/01 08:21:43;;;;;;;1.00;0.80;;;;;;;24.82;100.00;100555.22;4985260;28;20046;-76
2023/09/01 08:24:09;;;;;;;1.27;1.17;;;;;;;25.05;100.00;100572.66;4974628;28;20121;-81
2023/09/01 08:26:35;;;;;;;1.25;1.13;;;;;;;25.93;100.00;100658.94;4981363;28;20038;-77
2023/09/01 08:29:02;;;;;;;1.83;1.42;;;;;;;25.26;100.00;100524.91;4988572;28;20156;-86
2023/09/01 08:31:29;;;;;;;0.40;0.40;;;;;;;25.84;100.00;100626.22;4984210;28;20042;-76
2023/09/01 08:33:55;;;;;;;0.40;0.22;;;;;;;25.49;100.00;100566.53;4986257;28;20081;-80
2023/09/01 08:36:21;;;;;;;0.50;0.50;;;;;;;25.40;100.00;100562.59;4986348;28;20218;-80
2023/09/01 08:38:48;;;;;;;2.40;2.20;;;;;;;25.75;100.00;100569.47;5009889;28;20043;-81
2023/09/01 08:41:14;;;;;;;0.57;0.57;;;;;;;25.73;96.67;100561.50;4984665;28;20046;-78
2023/09/01 08:43:39;;;;;;;0.85;0.85;;;;;;;26.42;95.28;100672.09;4985703;28;20065;-79
2023/09/01 08:46:06;;;;;;;3.28;2.25;;;;;;;26.07;93.61;100656.28;4982916;28;20077;-80
2023/09/01 08:48:32;;;;;;;1.60;1.45;;;;;;;25.45;100.00;100563.19;4983603;28;20468;-82
2023/09/01 08:50:58;;;;;;;1.35;1.13;;;;;;;25.47;100.00;100547.84;4976780;28;20042;-80
2023/09/01 08:53:26;;;;;;;0.70;0.70;;;;;;;25.79;100.00;100651.66;4979056;28;20040;-76
2023/09/01 08:55:55;;;;;;;1.17;1.02;;;;;;;26.24;100.00;100657.94;4985744;28;20030;-79
2023/09/01 08:58:21;;;;;;;1.27;1.17;;;;;;;26.04;97.84;100649.25;4982825;28;20051;-77
2023/09/01 09:00:48;;;;;;;0.20;0.20;;;;;;;25.85;95.66;100641.41;4991705;28;20537;-78
2023/09/01 09:03:14;;;;;;;0.73;0.73;;;;;;;26.07;97.12;100645.53;4983221;28;20053;-77
2023/09/01 09:05:39;;;;;;;0.60;0.60;;;;;;;25.72;93.32;100569.66;4983991;28;20070;-78
2023/09/01 09:08:08;;;;;;;0.95;0.93;;;;;;;26.03;91.11;100676.25;4982047;28;20486;-77
2023/09/01 09:10:39;;;;;;;1.48;0.93;;;;;;;25.70;93.35;100600.16;4985562;28;20069;-78
2023/09/01 09:13:20;;;;;;;3.47;2.55;;;;;;;25.86;94.32;100644.97;4985683;28;20050;-77
2023/09/01 09:15:45;;;;;;;1.05;0.95;;;;;;;26.13;96.79;100658.59;4981456;28;20126;-77
2023/09/01 09:18:27;;;;;;;1.05;0.93;;;;;;;26.34;92.11;100667.19;4984596;28;20129;-77
2023/09/01 09:20:53;;;;;;;1.00;0.87;;;;;;;26.61;87.88;100663.75;4986074;28;20046;-76
2023/09/01 09:23:18;;;;;;;9.30;2.08;;;;;;;25.88;89.01;100583.94;4985400;28;20026;-77
2023/09/01 09:25:44;;;;;;;1.60;1.48;;;;;;;26.12;85.71;100573.47;4982916;28;20417;-78
2023/09/01 09:28:16;;;;;;;0.65;0.57;;;;;;;26.35;81.26;100590.00;4983240;28;20409;-78
2023/09/01 09:30:52;;;;;;;1.02;1.02;;;;;;;27.09;81.31;100680.41;4984522;28;20081;-78
2023/09/01 09:33:32;;;;;;;0.35;0.35;;;;;;;25.17;83.59;100522.72;4978151;28;20046;-78
2023/09/01 09:35:58;;;;;;;0.50;0.50;;;;;;;26.77;87.96;100674.44;4979747;28;20049;-77
2023/09/01 09:38:37;;;;;;;1.05;0.98;;;;;;;26.65;82.65;100604.25;4984596;28;20096;-77
2023/09/01 09:41:03;;;;;;;3.20;2.92;;;;;;;27.01;75.00;100675.53;4987090;28;20027;-76
2023/09/01 09:43:30;;;;;;;1.30;1.20;;;;;;;27.28;73.80;100675.59;4981002;28;20061;-77
2023/09/01 09:45:56;;;;;;;2.65;1.85;;;;;;;27.19;75.46;100638.44;4985304;28;20129;-80
2023/09/01 09:48:21;;;;;;;0.85;0.85;;;;;;;27.61;72.21;100660.84;4991777;28;20123;-78
2023/09/01 09:50:50;;;;;;;0.93;0.85;;;;;;;27.48;72.95;100641.06;4985367;28;20046;-78
2023/09/01 09:53:24;;;;;;;2.75;0.75;;;;;;;27.58;72.19;100608.00;4976888;28;20478;-77
2023/09/01 09:55:53;;;;;;;0.50;0.45;;;;;;;28.01;71.48;100635.72;4985763;28;20035;-77
2023/09/01 09:58:31;;;;;;;1.45;0.52;;;;;;;27.22;72.09;100645.50;4982744;28;20057;-77
2023/09/01 10:01:07;;;;;;;0.45;0.40;;;;;;;27.02;74.76;100595.56;4984412;28;20051;-78
2023/09/01 10:03:33;;;;;;;0.45;0.45;;;;;;;27.51;72.09;100641.75;4988708;28;20046;-78
2023/09/01 10:06:05;;;;;;;0.40;0.40;;;;;;;27.14;74.69;100636.06;4989361;28;20140;-78
2023/09/01 10:08:32;;;;;;;0.85;0.63;;;;;;;27.05;74.05;100608.88;5001947;28;20125;-78
2023/09/01 10:11:01;;;;;;;0.38;0.20;;;;;;;27.26;70.32;100606.63;4987167;28;20022;-78
2023/09/01 10:13:27;;;;;;;0.50;0.50;;;;;;;27.13;73.01;100603.81;4986871;28;20065;-76
2023/09/01 10:15:54;;;;;;;2.13;1.55;;;;;;;28.02;71.79;100667.97;5018341;28;20050;-76
2023/09/01 10:18:21;;;;;;;2.30;1.88;;;;;;;27.90;72.61;100666.97;4989123;28;20057;-77
2023/09/01 10:20:46;;;;;;;0.47;0.47;;;;;;;28.05;71.56;100688.47;4986716;28;20490;-79
2023/09/01 10:23:13;;;;;;;0.40;0.40;;;;;;;27.92;71.93;100667.72;4987705;28;20037;-78
2023/09/01 10:25:38;;;;;;;1.05;0.55;;;;;;;27.67;67.84;100568.72;4983984;28;20033;-77
2023/09/01 10:28:18;;;;;;;2.58;1.23;;;;;;;27.69;70.04;100587.50;4989177;28;20081;-76
2023/09/01 10:30:45;;;;;;;0.63;0.60;;;;;;;28.78;65.12;100566.31;4986304;28;20129;-77
2023/09/01 10:33:12;;;;;;;0.30;0.30;;;;;;;29.75;59.57;100686.19;4982409;28;20189;-76
2023/09/01 10:35:39;;;;;;;0.63;0.63;;;;;;;29.05;60.14;100620.13;4988447;28;20053;-78
2023/09/01 10:38:13;;;;;;;0.55;0.45;;;;;;;29.47;57.95;100672.00;4980959;28;20039;-77
2023/09/01 10:40:53;;;;;;;1.42;1.33;;;;;;;28.11;60.14;100671.88;4968895;28;20573;-77
2023/09/01 10:43:44;;;;;;;1.52;1.27;;;;;;;28.87;60.33;100678.22;4985877;28;20406;-79
2023/09/01 10:46:16;;;;;;;1.05;0.93;;;;;;;29.37;59.05;100673.69;4981879;28;20042;-79
2023/09/01 10:48:53;;;;;;;0.80;0.80;;;;;;;30.16;57.11;100668.59;4984128;28;20046;-77
2023/09/01 10:51:21;;;;;;;0.40;0.40;;;;;;;29.14;54.94;100597.00;4988670;28;20071;-78
2023/09/01 10:53:51;;;;;;;0.30;0.30;;;;;;;29.99;53.79;100596.81;4984173;28;20050;-78
2023/09/01 10:56:16;;;;;;;0.20;0.20;;;;;;;29.51;54.22;100583.41;4979478;28;20069;-77
2023/09/01 10:58:46;;;;;;;9.27;0.98;;;;;;;29.41;53.86;100611.16;4989467;28;20042;-78
2023/09/01 11:01:38;;;;;;;1.08;0.93;;;;;;;29.88;53.23;100630.16;4982557;28;20095;-78
2023/09/01 11:04:15;;;;;;;1.35;1.25;;;;;;;29.13;53.48;100623.19;4983945;28;20050;-77
2023/09/01 11:06:56;;;;;;;0.90;0.60;;;;;;;29.85;53.72;100668.25;4986942;28;20136;-77
2023/09/01 11:09:42;;;;;;;0.85;0.85;;;;;;;30.02;53.69;100650.72;4987643;28;20571;-77
2023/09/01 11:12:09;;;;;;;0.45;0.45;;;;;;;30.58;52.00;100658.06;4982281;28;20034;-78
2023/09/01 11:14:39;;;;;;;0.28;0.28;;;;;;;29.91;51.81;100592.03;4982849;28;20077;-79
2023/09/01 11:17:04;;;;;;;0.52;0.52;;;;;;;30.44;51.24;100551.72;4988370;28;20030;-77
2023/09/01 11:19:33;;;;;;;1.13;1.02;;;;;;;29.26;51.67;100579.84;4987628;28;20514;-76
2023/09/01 11:21:59;;;;;;;0.28;0.28;;;;;;;29.43;52.83;100630.81;4985133;28;20030;-77